Altamont, Illinois
Current Conditions -  °F | °C
As of 1:15 PM on Friday 21 Nov 2014 (Local Time) from K1H2 Reporting Station
Scattered Clouds Scattered Clouds  
Wind Chill: 29°   Ceiling: Unl
Heat Index: 37°   Visibility: NA
Dew Point: 10°   Wind: 12mph
Humidity: 32%   Direction: 110°ESE
Pressure: 30.4"   Gusts: NA
Location:  39.06°N, 88.75°W
Report Text: K1H2 211915Z AUTO 11010KT SCT041 03/M12 A3040 RMK AO2 T00281125 PWINO
Loading
Personal Weather Stations






























Interactive Weather Map New forecast layout! Learn more

10-Day Weather Forecast

Advertisements
Track Severe Weather on mobile